Terminal Aerodrome Forecast
Issued by NWS

Home | Current Version | Previous Version | Text Only | Print | Product List | Glossary On
Versions: 1 2 3 4 5 6 7 8 9 10 11 12 13 14
000
FTUS45 KPSR 301722
TAFBLH
TAF
KBLH 301722Z 3018/3118 18010KT P6SM SCT250
     FM310100 22008KT P6SM FEW150 SCT250
     FM310800 VRB04KT P6SM SCT250=

USA.gov is the U.S. government's official web portal to all federal, state and local government web resources and services.